createdAt,value
2023-01-09T00:00:23.177Z,40.10
2023-01-09T00:03:13.736Z,42.97
2023-01-09T00:05:42.887Z,40.72
2023-01-09T00:08:11.682Z,46.75
2023-01-09T00:10:40.884Z,40.70
2023-01-09T00:13:12.769Z,43.60
2023-01-09T00:15:42.936Z,41.75
2023-01-09T00:18:13.216Z,44.28
2023-01-09T00:20:42.549Z,37.00
2023-01-09T00:23:11.303Z,40.03
2023-01-09T00:25:42.463Z,37.20
2023-01-09T00:28:11.625Z,40.72
2023-01-09T00:30:40.715Z,43.65
2023-01-09T00:33:10.534Z,40.92
2023-01-09T00:35:41.109Z,42.40
2023-01-09T00:38:10.004Z,39.85
2023-01-09T00:40:39.343Z,41.75
2023-01-09T00:43:08.313Z,36.50
2023-01-09T00:45:37.576Z,38.08
2023-01-09T00:48:13.710Z,36.50
2023-01-09T00:50:44.928Z,35.97
2023-01-09T00:53:20.143Z,40.20
2023-01-09T00:55:49.217Z,39.20
2023-01-09T00:58:18.626Z,38.22
2023-01-09T01:00:47.819Z,40.60
2023-01-09T01:03:16.949Z,39.00
2023-01-09T01:06:04.678Z,38.13
2023-01-09T01:08:33.483Z,39.78
2023-01-09T01:11:09.249Z,35.65
2023-01-09T01:13:39.031Z,36.22
2023-01-09T01:16:12.044Z,37.97
2023-01-09T01:18:42.462Z,37.88
2023-01-09T01:21:15.687Z,31.15
2023-01-09T01:23:45.580Z,38.53
2023-01-09T01:26:17.544Z,37.88
2023-01-09T01:28:46.608Z,37.70
2023-01-09T01:31:20.225Z,35.83
2023-01-09T01:33:49.027Z,34.60
2023-01-09T01:36:19.512Z,35.58
2023-01-09T01:38:48.524Z,35.67
2023-01-09T01:41:29.529Z,35.20
2023-01-09T01:44:00.996Z,35.85
2023-01-09T01:46:31.024Z,36.80
2023-01-09T01:49:07.872Z,35.10
2023-01-09T01:51:46.055Z,41.28
2023-01-09T01:54:25.713Z,35.47
2023-01-09T01:56:59.717Z,34.08
2023-01-09T01:59:35.262Z,33.15
2023-01-09T02:02:05.918Z,38.38
2023-01-09T02:04:40.415Z,40.63
2023-01-09T02:07:12.441Z,39.58
2023-01-09T02:09:44.608Z,32.20
2023-01-09T02:12:23.575Z,33.65
2023-01-09T02:14:58.888Z,33.97
2023-01-09T02:18:07.529Z,37.30
2023-01-09T02:20:59.354Z,34.80
2023-01-09T02:24:31.210Z,37.65
2023-01-09T02:27:24.597Z,36.10
2023-01-09T02:30:27.504Z,38.05
2023-01-09T02:33:25.986Z,37.83
2023-01-09T02:36:19.064Z,37.20
2023-01-09T02:39:00.915Z,36.05
2023-01-09T02:41:39.366Z,35.40
2023-01-09T02:44:23.406Z,35.28
2023-01-09T02:47:04.897Z,39.67
2023-01-09T02:49:37.889Z,34.63
2023-01-09T02:52:28.070Z,34.45
2023-01-09T02:55:11.815Z,32.17
2023-01-09T02:57:58.044Z,35.72
2023-01-09T03:00:42.144Z,33.75
2023-01-09T03:03:23.327Z,33.85
2023-01-09T03:06:00.498Z,31.15
2023-01-09T03:08:40.190Z,33.75
2023-01-09T03:11:11.942Z,30.92
2023-01-09T03:13:47.979Z,36.58
2023-01-09T03:16:22.744Z,36.83
2023-01-09T03:18:55.942Z,34.53
2023-01-09T03:21:25.561Z,35.05
2023-01-09T03:23:58.377Z,39.13
2023-01-09T03:26:29.497Z,34.83
2023-01-09T03:28:59.510Z,34.42
2023-01-09T03:31:28.662Z,34.78
2023-01-09T03:33:58.849Z,32.13
2023-01-09T03:36:28.189Z,33.13
2023-01-09T03:38:56.977Z,31.05
2023-01-09T03:41:26.054Z,31.70
2023-01-09T03:43:54.901Z,32.72
2023-01-09T03:46:23.962Z,32.88
2023-01-09T03:48:52.734Z,31.40
2023-01-09T03:51:23.136Z,30.35
2023-01-09T03:53:51.901Z,32.38
2023-01-09T03:56:21.221Z,29.10
2023-01-09T03:58:50.257Z,36.13
2023-01-09T04:01:19.411Z,29.02
2023-01-09T04:03:48.440Z,29.95
2023-01-09T04:06:17.567Z,32.60
2023-01-09T04:08:47.715Z,27.67
2023-01-09T04:11:18.082Z,31.33
2023-01-09T04:13:46.896Z,32.20
2023-01-09T04:16:16.108Z,29.05
2023-01-09T04:18:44.961Z,28.77
2023-01-09T04:21:14.018Z,26.80
2023-01-09T04:23:42.788Z,29.05
2023-01-09T04:26:13.276Z,29.52
2023-01-09T04:28:42.042Z,33.83
2023-01-09T04:31:11.258Z,26.08
2023-01-09T04:33:40.099Z,32.47
2023-01-09T04:36:10.345Z,30.80
2023-01-09T04:38:39.163Z,26.33
2023-01-09T04:41:08.211Z,28.25
2023-01-09T04:43:38.761Z,28.88
2023-01-09T04:46:08.022Z,30.52
2023-01-09T04:48:36.803Z,29.95
2023-01-09T04:51:06.064Z,26.63
2023-01-09T04:53:34.863Z,25.38
2023-01-09T04:56:03.936Z,27.70
2023-01-09T04:58:32.756Z,29.58
2023-01-09T05:01:03.375Z,31.38
2023-01-09T05:03:32.287Z,28.27
2023-01-09T05:06:01.346Z,28.27
2023-01-09T05:08:30.165Z,27.30
2023-01-09T05:10:59.600Z,26.90
2023-01-09T05:13:28.951Z,29.58
2023-01-09T05:15:58.146Z,27.38
2023-01-09T05:18:28.402Z,31.02
2023-01-09T05:20:57.467Z,29.08
2023-01-09T05:23:26.285Z,25.17
2023-01-09T05:25:55.292Z,26.92
2023-01-09T05:28:24.087Z,27.85
2023-01-09T05:30:53.281Z,29.42
2023-01-09T05:33:22.058Z,26.95
2023-01-09T05:35:52.515Z,25.73
2023-01-09T05:38:21.445Z,28.05
2023-01-09T05:40:50.478Z,27.90
2023-01-09T05:43:19.223Z,24.45
2023-01-09T05:45:48.425Z,25.05
2023-01-09T05:48:17.237Z,22.83
2023-01-09T05:50:46.345Z,26.73
2023-01-09T05:53:16.512Z,25.38
2023-01-09T05:55:45.652Z,25.58
2023-01-09T05:58:14.433Z,24.83
2023-01-09T06:00:43.616Z,25.25
2023-01-09T06:03:12.542Z,23.92
2023-01-09T06:05:41.644Z,23.65
2023-01-09T06:08:10.414Z,25.52
2023-01-09T06:10:40.830Z,24.77
2023-01-09T06:13:09.709Z,27.10
2023-01-09T06:15:38.838Z,24.65
2023-01-09T06:18:07.766Z,27.05
2023-01-09T06:20:36.827Z,23.20
2023-01-09T06:23:05.597Z,24.50
2023-01-09T06:25:34.883Z,26.60
2023-01-09T06:28:05.420Z,24.27
2023-01-09T06:30:35.060Z,23.98
2023-01-09T06:33:03.865Z,24.10
2023-01-09T06:35:32.942Z,22.67
2023-01-09T06:38:03.493Z,26.83
2023-01-09T06:40:32.630Z,23.45
2023-01-09T06:43:01.512Z,24.98
2023-01-09T06:45:31.973Z,22.15
2023-01-09T06:48:00.801Z,23.50
2023-01-09T06:50:29.901Z,20.60
2023-01-09T06:52:58.664Z,25.50
2023-01-09T06:55:27.806Z,24.33
2023-01-09T06:57:56.644Z,24.63
2023-01-09T07:00:27.263Z,23.65
2023-01-09T07:02:57.527Z,25.00
2023-01-09T07:05:26.735Z,21.33
2023-01-09T07:07:56.982Z,24.70
2023-01-09T07:10:26.292Z,20.95
2023-01-09T07:12:55.163Z,23.80
2023-01-09T07:15:24.474Z,20.92
2023-01-09T07:17:53.474Z,20.35
2023-01-09T07:20:23.914Z,22.95
2023-01-09T07:22:54.012Z,22.70
2023-01-09T07:25:23.295Z,22.60
2023-01-09T07:27:52.072Z,22.15
2023-01-09T07:30:21.381Z,23.02
2023-01-09T07:32:50.171Z,22.75
2023-01-09T07:35:19.545Z,20.73
2023-01-09T07:37:49.712Z,21.13
2023-01-09T07:40:19.244Z,21.30
2023-01-09T07:42:48.051Z,19.98
2023-01-09T07:45:17.279Z,19.30
2023-01-09T07:47:46.167Z,20.95
2023-01-09T07:50:15.336Z,23.52
2023-01-09T07:52:46.532Z,20.48
2023-01-09T07:55:17.710Z,20.98
2023-01-09T07:57:50.991Z,20.90
2023-01-09T08:00:22.106Z,20.88
2023-01-09T08:02:54.050Z,20.75
2023-01-09T08:05:24.033Z,23.13
2023-01-09T08:07:53.259Z,19.08
2023-01-09T08:10:23.722Z,22.55
2023-01-09T08:12:52.823Z,22.08
2023-01-09T08:15:21.627Z,20.92
2023-01-09T08:17:50.766Z,21.15
2023-01-09T08:20:19.874Z,19.75
2023-01-09T08:22:53.632Z,21.83
2023-01-09T08:25:24.391Z,23.38
2023-01-09T08:27:53.775Z,21.35
2023-01-09T08:30:22.914Z,21.80
2023-01-09T08:32:54.099Z,21.90
2023-01-09T08:35:23.395Z,18.70
2023-01-09T08:37:52.509Z,21.77
2023-01-09T08:40:22.991Z,22.38
2023-01-09T08:43:09.655Z,22.55
2023-01-09T08:45:55.673Z,24.27
2023-01-09T08:48:24.847Z,20.08
2023-01-09T08:50:54.414Z,22.25
2023-01-09T08:53:23.533Z,20.98
2023-01-09T08:55:53.677Z,24.25
2023-01-09T08:58:22.802Z,19.92
2023-01-09T09:00:51.595Z,19.60
2023-01-09T09:03:21.773Z,20.27
2023-01-09T09:05:50.568Z,18.80
2023-01-09T09:08:20.320Z,22.15
2023-01-09T09:10:49.298Z,20.83
2023-01-09T09:13:19.807Z,21.08
2023-01-09T09:15:48.709Z,19.73
2023-01-09T09:18:17.856Z,20.67
2023-01-09T09:20:46.735Z,20.95
2023-01-09T09:23:16.233Z,21.20
2023-01-09T09:25:45.065Z,20.77
2023-01-09T09:28:14.148Z,19.73
2023-01-09T09:30:44.368Z,21.70
2023-01-09T09:33:13.435Z,21.30
2023-01-09T09:35:42.251Z,20.23
2023-01-09T09:38:13.438Z,20.10
2023-01-09T09:41:03.448Z,21.95
2023-01-09T09:44:14.275Z,24.38
2023-01-09T09:46:56.056Z,22.08
2023-01-09T09:49:33.926Z,21.67
2023-01-09T09:52:20.512Z,22.05
2023-01-09T09:54:51.724Z,22.60
2023-01-09T09:57:35.634Z,22.33
2023-01-09T10:00:06.940Z,21.70
2023-01-09T10:02:51.777Z,19.80
2023-01-09T10:05:28.387Z,22.33
2023-01-09T10:08:15.432Z,20.80
2023-01-09T10:10:53.555Z,21.42
2023-01-09T10:13:43.817Z,21.08
2023-01-09T10:16:32.900Z,23.00
2023-01-09T10:19:20.604Z,24.60
2023-01-09T10:22:03.144Z,24.60
2023-01-09T10:24:55.424Z,20.73
2023-01-09T10:27:53.354Z,21.63
2023-01-09T10:30:33.996Z,18.98
2023-01-09T10:33:21.461Z,23.90
2023-01-09T10:36:40.457Z,49.90
2023-01-09T10:39:22.263Z,26.65
2023-01-09T10:42:01.528Z,20.80
2023-01-09T10:44:37.600Z,24.77
2023-01-09T10:47:16.719Z,20.67
2023-01-09T10:49:49.069Z,19.33
2023-01-09T10:52:20.864Z,23.98
2023-01-09T10:54:57.570Z,24.95
2023-01-09T10:57:46.834Z,21.65
2023-01-09T11:00:23.173Z,26.67
2023-01-09T11:02:54.799Z,23.02
2023-01-09T11:05:28.026Z,24.63
2023-01-09T11:08:05.658Z,21.50
2023-01-09T11:10:51.035Z,25.05
2023-01-09T11:13:23.646Z,23.65
2023-01-09T11:16:16.990Z,24.33
2023-01-09T11:18:53.889Z,23.58
2023-01-09T11:21:35.993Z,25.13
2023-01-09T11:24:31.600Z,27.02
2023-01-09T11:27:25.304Z,23.55
2023-01-09T11:30:24.016Z,24.23
2023-01-09T11:32:53.556Z,25.50
2023-01-09T11:35:33.755Z,22.33
2023-01-09T11:38:09.560Z,21.77
2023-01-09T11:40:50.497Z,24.23
2023-01-09T11:43:34.720Z,24.80
2023-01-09T11:46:07.044Z,22.58
2023-01-09T11:48:54.686Z,24.52
2023-01-09T11:51:26.465Z,21.33
2023-01-09T11:54:22.503Z,24.67
2023-01-09T11:56:53.469Z,24.50
2023-01-09T11:59:28.361Z,22.95
2023-01-09T12:02:47.636Z,23.00
2023-01-09T12:05:33.009Z,24.10
2023-01-09T12:08:29.739Z,19.80
2023-01-09T12:11:28.952Z,27.52
2023-01-09T12:14:30.428Z,26.40
2023-01-09T12:17:36.625Z,26.35
2023-01-09T12:20:34.401Z,22.20
2023-01-09T12:23:25.020Z,23.38
2023-01-09T12:26:16.278Z,28.90
2023-01-09T12:29:19.858Z,23.98
2023-01-09T12:32:17.795Z,21.13
2023-01-09T12:35:03.421Z,23.58
2023-01-09T12:38:05.375Z,26.83
2023-01-09T12:41:09.394Z,25.52
2023-01-09T12:43:55.354Z,24.60
2023-01-09T12:46:27.456Z,25.73
2023-01-09T12:49:28.284Z,23.67
2023-01-09T12:52:07.150Z,23.15
2023-01-09T12:54:46.958Z,25.67
2023-01-09T12:57:24.518Z,22.05
2023-01-09T12:59:59.791Z,23.50
2023-01-09T13:02:38.810Z,23.63
2023-01-09T13:05:17.586Z,24.80
2023-01-09T13:07:53.656Z,22.48
2023-01-09T13:10:30.930Z,24.30
2023-01-09T13:13:07.146Z,25.90
2023-01-09T13:15:42.532Z,28.40
2023-01-09T13:18:22.401Z,25.83
2023-01-09T13:20:56.112Z,25.42
2023-01-09T13:23:36.902Z,27.60
2023-01-09T13:26:09.906Z,25.63
2023-01-09T13:28:47.121Z,24.58
2023-01-09T13:32:08.663Z,24.67
2023-01-09T13:34:41.070Z,24.38
2023-01-09T13:37:25.669Z,27.33
2023-01-09T13:40:00.795Z,24.33
2023-01-09T13:42:38.803Z,24.83
2023-01-09T13:45:24.588Z,26.00
2023-01-09T13:48:30.721Z,24.00
2023-01-09T13:51:51.688Z,24.60
2023-01-09T13:57:31.043Z,23.80
2023-01-09T14:00:50.851Z,22.58
2023-01-09T14:03:26.339Z,24.80
2023-01-09T14:06:22.550Z,22.98
2023-01-09T14:09:13.274Z,23.38
2023-01-09T14:11:42.755Z,25.83
2023-01-09T14:14:33.226Z,21.85
2023-01-09T14:17:03.821Z,24.38
2023-01-09T14:19:38.230Z,22.88
2023-01-09T14:22:18.519Z,22.48
2023-01-09T14:24:52.648Z,23.13
2023-01-09T14:28:11.597Z,22.77
2023-01-09T14:31:11.433Z,23.98
2023-01-09T14:33:40.768Z,18.83
2023-01-09T14:36:21.886Z,22.48
2023-01-09T14:38:54.361Z,23.83
2023-01-09T14:41:49.619Z,21.23
2023-01-09T14:44:30.166Z,22.13
2023-01-09T14:47:11.771Z,23.35
2023-01-09T14:49:46.756Z,23.10
2023-01-09T14:52:24.883Z,24.27
2023-01-09T14:55:00.578Z,22.80
2023-01-09T14:57:32.524Z,22.42
2023-01-09T15:00:04.857Z,23.45
2023-01-09T15:02:38.348Z,20.60
2023-01-09T15:05:12.354Z,20.20
2023-01-09T15:07:49.659Z,20.95
2023-01-09T15:10:23.510Z,22.58
2023-01-09T15:12:56.043Z,20.85
2023-01-09T15:15:27.704Z,24.23
2023-01-09T15:18:01.513Z,21.13
2023-01-09T15:20:34.407Z,21.95
2023-01-09T15:23:04.351Z,21.90
2023-01-09T15:25:39.690Z,22.30
2023-01-09T15:28:30.914Z,21.75
2023-01-09T15:31:10.844Z,20.33
2023-01-09T15:33:44.631Z,20.38
2023-01-09T15:36:20.843Z,19.13
2023-01-09T15:38:52.436Z,19.83
2023-01-09T15:41:45.641Z,16.75
2023-01-09T15:44:20.030Z,21.73
2023-01-09T15:46:51.875Z,20.48
2023-01-09T15:49:22.388Z,21.10
2023-01-09T15:51:52.585Z,17.20
2023-01-09T15:54:30.212Z,18.65
2023-01-09T15:57:37.747Z,20.92
2023-01-09T16:00:42.044Z,19.83
2023-01-09T16:03:23.124Z,22.23
2023-01-09T16:06:05.637Z,21.60
2023-01-09T16:08:38.906Z,22.45
2023-01-09T16:11:11.118Z,22.70
2023-01-09T16:13:46.088Z,20.27
2023-01-09T16:16:26.071Z,21.67
2023-01-09T16:18:57.920Z,19.63
2023-01-09T16:21:37.455Z,24.38
2023-01-09T16:24:27.102Z,18.13
2023-01-09T16:27:30.583Z,23.40
2023-01-09T16:30:01.358Z,21.52
2023-01-09T16:32:33.555Z,21.33
2023-01-09T16:35:06.512Z,19.10
2023-01-09T16:37:37.538Z,20.90
2023-01-09T16:40:27.507Z,24.33
2023-01-09T16:43:00.952Z,22.08
2023-01-09T16:45:34.222Z,22.58
2023-01-09T16:48:11.027Z,19.90
2023-01-09T16:50:40.283Z,24.48
2023-01-09T16:53:17.456Z,24.70
2023-01-09T16:55:47.499Z,21.70
2023-01-09T16:58:24.533Z,21.00
2023-01-09T17:00:54.179Z,21.65
2023-01-09T17:03:23.016Z,23.20
2023-01-09T17:05:59.295Z,21.65
2023-01-09T17:08:32.724Z,20.92
2023-01-09T17:11:02.106Z,22.25
2023-01-09T17:13:31.269Z,22.17
2023-01-09T17:16:01.169Z,19.77
2023-01-09T17:18:30.023Z,18.38
2023-01-09T17:20:59.779Z,19.35
2023-01-09T17:23:30.559Z,20.40
2023-01-09T17:26:18.530Z,20.90
2023-01-09T17:28:51.535Z,21.10
2023-01-09T17:31:21.148Z,20.88
2023-01-09T17:33:50.263Z,18.95
2023-01-09T17:36:28.037Z,20.77
2023-01-09T17:38:58.653Z,25.38
2023-01-09T17:41:31.218Z,25.70
2023-01-09T17:44:01.308Z,23.63
2023-01-09T17:46:33.680Z,21.17
2023-01-09T17:49:04.236Z,17.38
2023-01-09T17:51:33.861Z,19.70
2023-01-09T17:54:04.224Z,18.05
2023-01-09T17:56:38.422Z,18.52
2023-01-09T17:59:08.226Z,17.45
2023-01-09T18:01:37.606Z,16.42
2023-01-09T18:04:06.757Z,16.73
2023-01-09T18:06:37.590Z,17.05
2023-01-09T18:09:09.937Z,18.05
2023-01-09T18:11:41.364Z,21.23
2023-01-09T18:14:13.412Z,14.73
2023-01-09T18:16:44.236Z,13.30
2023-01-09T18:19:13.380Z,15.32
2023-01-09T18:21:42.559Z,14.82
2023-01-09T18:24:12.737Z,15.30
2023-01-09T18:26:41.889Z,18.10
2023-01-09T18:29:11.507Z,17.17
2023-01-09T18:31:40.936Z,16.88
2023-01-09T18:34:11.068Z,14.45
2023-01-09T18:36:40.236Z,15.27
2023-01-09T18:39:09.280Z,13.43
2023-01-09T18:41:39.796Z,13.13
2023-01-09T18:44:08.700Z,16.67
2023-01-09T18:46:40.899Z,15.55
2023-01-09T18:49:11.245Z,13.68
2023-01-09T18:51:40.359Z,13.95
2023-01-09T18:54:09.202Z,15.52
2023-01-09T18:56:39.762Z,16.75
2023-01-09T18:59:10.455Z,16.60
2023-01-09T19:01:39.713Z,15.27
2023-01-09T19:04:08.744Z,14.60
2023-01-09T19:06:38.051Z,15.43
2023-01-09T19:09:07.168Z,14.68
2023-01-09T19:11:36.387Z,16.55
2023-01-09T19:14:06.633Z,18.10
2023-01-09T19:16:35.876Z,20.08
2023-01-09T19:19:06.533Z,20.85
2023-01-09T19:21:36.055Z,20.92
2023-01-09T19:24:05.558Z,21.13
2023-01-09T19:26:34.662Z,21.70
2023-01-09T19:29:03.487Z,21.88
2023-01-09T19:31:34.489Z,21.55
2023-01-09T19:34:03.493Z,21.15
2023-01-09T19:36:32.656Z,17.15
2023-01-09T19:39:03.848Z,19.35
2023-01-09T19:41:33.577Z,21.63
2023-01-09T19:44:02.772Z,21.27
2023-01-09T19:46:35.529Z,22.42
2023-01-09T19:49:06.186Z,22.15
2023-01-09T19:51:35.715Z,19.35
2023-01-09T19:56:35.648Z,22.15
2023-01-09T19:59:06.833Z,20.83
2023-01-09T20:01:43.585Z,21.88
2023-01-09T20:04:15.118Z,19.65
2023-01-09T20:06:47.315Z,21.95
2023-01-09T20:09:21.532Z,21.58
2023-01-09T20:11:50.817Z,22.48
2023-01-09T20:14:20.967Z,28.20
2023-01-09T20:16:54.075Z,24.55
2023-01-09T20:19:23.377Z,22.65
2023-01-09T20:21:52.518Z,22.38
2023-01-09T20:24:21.343Z,22.55
2023-01-09T20:26:51.125Z,23.67
2023-01-09T20:29:20.508Z,23.27
2023-01-09T20:31:51.173Z,25.80
2023-01-09T20:34:20.089Z,22.08
2023-01-09T20:36:49.446Z,20.33
2023-01-09T20:39:18.441Z,25.67
2023-01-09T20:41:47.532Z,27.70
2023-01-09T20:44:16.733Z,29.85
2023-01-09T20:46:48.300Z,33.88
2023-01-09T20:49:19.388Z,28.27
2023-01-09T20:51:50.927Z,32.33
2023-01-09T20:54:22.421Z,32.00
2023-01-09T20:56:52.279Z,32.28
2023-01-09T20:59:22.301Z,34.45
2023-01-09T21:01:51.948Z,29.40
2023-01-09T21:04:22.275Z,32.30
2023-01-09T21:06:51.372Z,29.17
2023-01-09T21:09:20.820Z,29.67
2023-01-09T21:11:50.021Z,32.80
2023-01-09T21:14:20.124Z,34.75
2023-01-09T21:16:54.592Z,37.10
2023-01-09T21:19:25.715Z,39.05
2023-01-09T21:21:54.820Z,31.67
2023-01-09T21:24:23.809Z,31.88
2023-01-09T21:26:52.935Z,29.73
2023-01-09T21:29:21.741Z,34.65
2023-01-09T21:31:51.130Z,28.10
2023-01-09T21:34:20.911Z,31.75
2023-01-09T21:36:52.105Z,32.25
2023-01-09T21:39:22.510Z,34.42
2023-01-09T21:42:08.886Z,34.28
2023-01-09T21:44:55.827Z,35.70
2023-01-09T21:47:24.986Z,34.75
2023-01-09T21:49:53.765Z,37.13
2023-01-09T21:52:25.697Z,33.78
2023-01-09T21:54:54.498Z,32.03
2023-01-09T21:57:23.763Z,36.50
2023-01-09T21:59:52.561Z,39.00
2023-01-09T22:02:21.690Z,34.45
2023-01-09T22:04:51.367Z,39.60
2023-01-09T22:07:20.511Z,37.17
2023-01-09T22:09:50.805Z,39.78
2023-01-09T22:12:20.007Z,33.40
2023-01-09T22:14:48.936Z,38.55
2023-01-09T22:17:18.013Z,36.65
2023-01-09T22:19:46.898Z,33.25
2023-01-09T22:22:16.032Z,35.30
2023-01-09T22:24:44.918Z,33.75
2023-01-09T22:27:15.401Z,31.55
2023-01-09T22:29:44.189Z,37.72
2023-01-09T22:32:13.403Z,35.38
2023-01-09T22:34:42.177Z,38.83
2023-01-09T22:37:11.336Z,31.13
2023-01-09T22:39:40.155Z,31.17
2023-01-09T22:42:09.215Z,32.50
2023-01-09T22:44:39.356Z,32.20
2023-01-09T22:47:08.441Z,33.67
2023-01-09T22:49:51.844Z,35.22
2023-01-09T22:52:22.429Z,37.00
2023-01-09T22:54:51.283Z,33.47
2023-01-09T22:57:20.358Z,33.92
2023-01-09T22:59:50.498Z,36.42
2023-01-09T23:02:21.058Z,36.00
2023-01-09T23:04:49.954Z,36.38
2023-01-09T23:07:19.020Z,40.10
2023-01-09T23:09:48.090Z,38.33
2023-01-09T23:12:17.451Z,35.53
2023-01-09T23:14:46.355Z,36.60
2023-01-09T23:17:17.051Z,37.10
2023-01-09T23:19:45.950Z,40.40
2023-01-09T23:22:15.043Z,39.10
2023-01-09T23:24:43.833Z,39.38
2023-01-09T23:27:13.043Z,45.78
2023-01-09T23:29:41.879Z,42.30
2023-01-09T23:32:12.126Z,42.78
2023-01-09T23:34:42.455Z,40.45
2023-01-09T23:37:11.631Z,45.25
2023-01-09T23:39:40.436Z,41.75
2023-01-09T23:42:29.461Z,42.83
2023-01-09T23:44:58.321Z,45.90
2023-01-09T23:47:27.512Z,45.42
2023-01-09T23:49:57.706Z,45.22
2023-01-09T23:52:26.789Z,46.55
2023-01-09T23:54:56.693Z,47.75
2023-01-09T23:57:26.506Z,43.10
2023-01-09T23:59:55.281Z,47.63
